YXTA weather

Tangalooma Resort Airport
Queensland, Australia

Public forecast

Using degrees Celsius for public forecast. Weather courtesy of forecast.io.

METAR (pilot weather report)

Closest report is Brisbane International Airport, 18.0 nm (33.3 km) SW. Retrieved 2019/04/18 09:30 UTC (1 hour ago):

YBBN 180930Z 18006KT 9999 FEW022 22/17 Q1022 NOSIG

TAF (pilot weather forecast)

Closest forecast is Brisbane International Airport, 18.0 nm (33.3 km) SW. Retrieved 2019/04/18 06:00 UTC (5 hours ago):

TAF YBBN 180503Z 1806/1912 13012KT 9999 SCT035 FM181100 19008KT 9999 -SHRA SCT020 SCT035 FM182300 13014KT 9999 -SHRA SCT025 BKN040 INTER 1818/1912 3000 SHRA BKN012